Latest Coastal Weather Observations for Robe Airport

IDV60701

Issued at 1:02 pm EST Friday 20 April 2018 (issued every 10 minutes, with the page automatically refreshed every 10 minutes)

About coastal observations | Map of coastal stations | Coastal observations for VIC | Marine services | Other Formats
Station Details ID: 026105 Name: ROBE AIRFIELD Lat: -37.18 Lon: 139.81 Height: 3.0 m
Data from the previous 72 hours. | See also: Recent months at Robe Airport
Date/Time
EST
Temp
°C
Wind Pressure Rain since
9am
mm
Weather Cloud Vis
km
Sea
Height
m
Swell
Dir  Spd
kts
Gust
kts
hPa Trend Height
m
Period
s
Dir
20/01:00pm 30.7 NNE 9 14 1017.3 - 0.0 - - - - - - -
20/12:30pm 29.7 NNE 9 13 1017.9 - 0.0 - - - - - - -
20/12:00pm 28.4 N 10 13 1018.2 - 0.0 - - - - - - -
20/11:30am 25.9 N 8 11 1018.5 - 0.0 - - - - - - -
20/11:00am 25.3 NNE 8 10 1018.5 - 0.0 - - - - - - -
20/10:30am 22.9 NE 7 10 1018.7 - 0.0 - - - - - - -
20/10:00am 21.3 NE 7 9 1019.1 - 0.0 - - - - - - -
20/09:30am 18.8 NE 6 8 1019.4 - 0.0 - - - - - - -
20/09:00am 16.4 NE 6 9 1019.5 - 0.0 - - - - - - -
20/08:30am 15.5 ENE 2 4 1019.6 - 0.0 - - - - - - -
20/08:00am 12.7 ENE 2 3 1019.2 - 0.0 - - - - - - -
20/07:30am 11.0 ENE 2 5 1018.7 - 0.0 - - - - - - -
20/07:00am 10.2 NE 4 5 1018.5 - 0.0 - - - - - - -
20/06:30am 10.6 NNE 1 3 1018.4 - 0.0 - - - - - - -
20/06:00am 10.8 NE 2 3 1018.3 - 0.0 - - - - - - -
20/05:30am 10.9 NE 2 4 1018.1 - 0.0 - - - - - - -
20/05:00am 10.6 ENE 4 5 1017.7 - 0.0 - - - - - - -
20/04:30am 10.6 E 1 3 1017.6 - 0.0 - - - - - - -
20/04:00am 9.7 ESE 2 2 1017.5 - 0.0 - - - - - - -
20/03:30am 9.6 SE 2 2 1017.5 - 0.0 - - - - - - -
20/03:00am 10.3 SE 2 3 1017.7 - 0.0 - - - - - - -
20/02:30am 9.6 SE 3 3 1017.7 - 0.0 - - - - - - -
20/02:00am 10.6 ESE 1 2 1017.7 - 0.0 - - - - - - -
20/01:30am 11.4 ESE 2 2 1017.8 - 0.0 - - - - - - -
20/01:00am 11.4 ESE 2 3 1017.8 - 0.0 - - - - - - -
20/12:30am 12.0 ESE 2 3 1018.0 - 0.0 - - - - - - -
20/12:00am 11.4 ESE 2 3 1018.0 - 0.0 - - - - - - -
 
Date/Time
EST
Temp
°C
Wind Pressure Rain since
9am
mm
Weather Cloud Vis
km
Sea
Height
m
Swell
Dir  Spd
kts
Gust
kts
hPa Trend Height
m
Period
s
Dir
19/11:30pm 12.7 ESE 2 3 1018.0 - 0.0 - - - - - - -
19/11:00pm 12.9 SE 3 4 1018.0 - 0.0 - - - - - - -
19/10:30pm 13.1 SE 4 5 1018.1 - 0.0 - - - - - - -
19/10:00pm 13.1 SE 3 4 1018.2 - 0.0 - - - - - - -
19/09:30pm 13.9 SE 3 3 1018.1 - 0.0 - - - - - - -
19/09:00pm 14.5 SE 3 4 1017.9 - 0.0 - - - - - - -
19/08:30pm 15.9 SE 6 9 1017.7 - 0.0 - - - - - - -
19/08:00pm 15.1 SSE 5 7 1017.7 - 0.0 - - - - - - -
19/07:30pm 15.7 SSE 5 7 1017.5 - 0.0 - - - - - - -
19/07:00pm 16.1 SSE 5 7 1017.3 - 0.0 - - - - - - -
19/06:30pm 16.2 S 5 5 1017.1 - 0.0 - - - - - - -
19/06:00pm 18.2 S 5 6 1016.9 - 0.0 - - - - - - -
19/05:30pm 20.2 SSW 6 7 1016.7 - 0.0 - - - - - - -
19/05:00pm 22.2 SSW 5 7 1016.6 - 0.0 - - - - - - -
19/04:30pm 22.7 S 6 8 1016.5 - 0.0 - - - - - - -
19/04:00pm 23.1 SSW 7 8 1016.6 - 0.0 - - - - - - -
19/03:30pm 23.6 SSW 5 7 1016.5 - 0.0 - - - - - - -
19/03:00pm 23.9 SSW 5 8 1016.3 - 0.0 - - - - - - -
19/02:30pm 23.3 SW 5 8 1016.3 - 0.0 - - - - - - -
19/02:00pm 23.7 SSW 5 8 1016.4 - 0.0 - - - - - - -
19/01:30pm 24.7 SW 4 11 1016.6 - 0.0 - - - - - - -
19/01:00pm 23.0 NW 5 7 1016.8 - 0.0 - - - - - - -
19/12:30pm 22.4 NW 5 6 1017.1 - 0.0 - - - - - - -
19/12:00pm 21.6 NW 6 8 1017.4 - 0.0 - - - - - - -
19/11:30am 21.1 NW 6 7 1017.5 - 0.0 - - - - - - -
19/11:00am 20.8 NW 7 9 1017.7 - 0.0 - - - - - - -
19/10:30am 20.4 NNW 5 9 1017.7 - 0.0 - - - - - - -
19/10:00am 19.6 N 5 7 1017.8 - 0.0 - - - - - - -
19/09:30am 17.7 N 6 7 1017.6 - 0.0 - - - - - - -
19/09:00am 16.0 NNE 4 8 1017.5 - 0.0 - - - - - - -
19/08:30am 13.5 NNE 2 4 1017.4 - 0.0 - - - - - - -
19/08:00am 9.5 CALM 0 0 1016.9 - 0.0 - - - - - - -
19/07:30am 7.7 CALM 0 0 1016.6 - 0.0 - - - - - - -
19/07:00am 8.4 CALM 0 0 1016.3 - 0.0 - - - - - - -
19/06:30am 8.7 NE 2 2 1016.0 - 0.0 - - - - - - -
19/06:00am 9.2 NE 2 3 1015.8 - 0.0 - - - - - - -
19/05:30am 9.8 NE 3 4 1015.7 - 0.0 - - - - - - -
19/05:00am 9.8 NE 4 4 1015.5 - 0.0 - - - - - - -
19/04:30am 10.2 NNE 2 3 1015.5 - 0.0 - - - - - - -
19/04:00am 9.9 ENE 2 4 1015.5 - 0.0 - - - - - - -
19/03:30am 10.0 ENE 2 3 1015.7 - 0.0 - - - - - - -
19/03:00am 10.0 ENE 3 3 1016.1 - 0.0 - - - - - - -
19/02:30am 10.4 ESE 2 3 1016.3 - 0.0 - - - - - - -
19/02:00am 10.8 ESE 3 3 1016.6 - 0.0 - - - - - - -
19/01:30am 10.7 CALM 0 0 1016.7 - 0.0 - - - - - - -
19/01:00am 10.7 CALM 0 0 1016.7 - 0.0 - - - - - - -
19/12:30am 10.6 CALM 0 0 1016.8 - 0.0 - - - - - - -
19/12:00am 11.1 CALM 0 0 1017.0 - 0.0 - - - - - - -
 
Date/Time
EST
Temp
°C
Wind Pressure Rain since
9am
mm
Weather Cloud Vis
km
Sea
Height
m
Swell
Dir  Spd
kts
Gust
kts
hPa Trend Height
m
Period
s
Dir
18/11:30pm 11.4 CALM 0 0 1017.2 - 0.0 - - - - - - -
18/11:00pm 11.7 CALM 0 1 1017.3 - 0.0 - - - - - - -
18/10:30pm 12.2 SE 2 2 1017.3 - 0.0 - - - - - - -
18/10:00pm 12.9 SE 2 3 1017.4 - 0.0 - - - - - - -
18/09:30pm 13.1 ESE 2 3 1017.4 - 0.0 - - - - - - -
18/09:00pm 13.1 ESE 3 5 1017.4 - 0.0 - - - - - - -
18/08:30pm 13.2 SE 4 4 1017.6 - 0.0 - - - - - - -
18/08:00pm 13.9 SE 5 6 1017.8 - 0.0 - - - - - - -
18/07:30pm 14.3 SE 5 6 1017.9 - 0.0 - - - - - - -
18/07:00pm 14.1 SSE 5 6 1017.9 - 0.0 - - - - - - -
18/06:30pm 14.6 SSE 5 7 1017.6 - 0.0 - - - - - - -
18/06:00pm 16.7 SSE 3 3 1017.4 - 0.0 - - - - - - -
18/05:30pm 18.8 SSW 3 5 1017.1 - 0.0 - - - - - - -
18/05:00pm 20.0 NW 4 6 1017.0 - 0.0 - - - - - - -
18/04:30pm 19.6 NW 6 9 1017.0 - 0.0 - - - - - - -
18/04:00pm 19.9 NW 7 10 1017.1 - 0.0 - - - - - - -
18/03:30pm 20.5 WNW 6 9 1017.2 - 0.0 - - - - - - -
18/03:00pm 20.6 WNW 8 10 1017.3 - 0.0 - - - - - - -
18/02:30pm 20.4 WNW 7 10 1017.5 - 0.0 - - - - - - -
18/02:00pm 19.7 WNW 9 12 1018.0 - 0.0 - - - - - - -
18/01:30pm 20.8 WNW 6 9 1018.4 - 0.0 - - - - - - -
18/01:00pm 21.2 N 7 11 1019.1 - 0.0 - - - - - - -
18/12:30pm 19.7 NNE 6 11 1019.8 - 0.0 - - - - - - -
18/12:00pm 18.9 NNE 7 11 1020.4 - 0.0 - - - - - - -
18/11:30am 17.8 NNE 6 9 1021.0 - 0.0 - - - - - - -
18/11:00am 16.4 NE 7 9 1021.1 - 0.0 - - - - - - -
18/10:30am 14.6 NNE 8 11 1021.4 - 0.0 - - - - - - -
18/10:00am 12.9 NE 7 10 1021.7 - 0.0 - - - - - - -
18/09:30am 10.9 NE 7 10 1022.0 - 0.0 - - - - - - -
18/09:00am 10.0 ENE 5 8 1022.1 - 0.0 - - - - - - -
18/08:30am 9.3 ENE 5 8 1022.1 - 0.0 - - - - - - -
18/08:00am 7.8 E 4 6 1022.2 - 0.0 - - - - - - -
18/07:30am 6.7 E 4 6 1022.3 - 0.0 - - - - - - -
18/07:00am 6.4 E 4 6 1022.5 - 0.0 - - - - - - -
18/06:30am 6.5 E 4 5 1022.4 - 0.0 - - - - - - -
18/06:00am 6.7 E 4 5 1022.2 - 0.0 - - - - - - -
18/05:30am 6.9 E 3 5 1022.1 - 0.0 - - - - - - -
18/05:00am 7.1 E 4 5 1022.1 - 0.0 - - - - - - -
18/04:30am 7.2 ESE 2 3 1022.2 - 0.0 - - - - - - -
18/04:00am 7.4 ESE 3 4 1022.3 - 0.0 - - - - - - -
18/03:30am 7.3 ESE 2 4 1022.7 - 0.0 - - - - - - -
18/03:00am 7.5 ESE 4 5 1023.0 - 0.0 - - - - - - -
18/02:30am 7.3 ESE 3 3 1023.5 - 0.0 - - - - - - -
18/02:00am 7.5 SE 3 4 1023.7 - 0.0 - - - - - - -
18/01:30am 8.5 ESE 3 5 1023.8 - 0.0 - - - - - - -
18/01:00am 9.1 ESE 5 6 1023.9 - 0.0 - - - - - - -
18/12:30am 9.7 E 6 8 1024.0 - 0.0 - - - - - - -
18/12:00am 9.9 ESE 7 10 1024.2 - 0.0 - - - - - - -
 
Date/Time
EST
Temp
°C
Wind Pressure Rain since
9am
mm
Weather Cloud Vis
km
Sea
Height
m
Swell
Dir  Spd
kts
Gust
kts
hPa Trend Height
m
Period
s
Dir
17/11:30pm 10.2 ESE 7 10 1024.5 - 0.0 - - - - - - -
17/11:00pm 10.3 ESE 6 9 1024.8 - 0.0 - - - - - - -
17/10:30pm 10.3 SE 5 7 1025.0 - 0.0 - - - - - - -
17/10:00pm 10.5 SE 5 8 1025.2 - 0.0 - - - - - - -
17/09:30pm 10.7 SE 5 6 1025.2 - 0.0 - - - - - - -
17/09:00pm 11.2 SSE 5 7 1025.3 - 0.0 - - - - - - -
17/08:30pm 11.9 SSE 6 8 1025.4 - 0.0 - - - - - - -
17/08:00pm 12.6 SE 9 12 1025.1 - 0.0 - - - - - - -
17/07:30pm 12.5 SSE 6 11 1025.2 - 0.0 - - - - - - -
17/07:00pm 13.3 SSE 8 11 1024.8 - 0.0 - - - - - - -
17/06:30pm 13.5 SSE 9 12 1024.6 - 0.0 - - - - - - -
17/06:00pm 14.3 SSE 8 13 1024.3 - 0.0 - - - - - - -
17/05:30pm 15.2 SSE 9 13 1024.2 - 0.0 - - - - - - -
17/05:00pm 15.7 SSE 11 15 1024.1 - 0.0 - - - - - - -
17/04:30pm 16.1 S 13 19 1024.3 - 0.0 - - - - - - -
17/04:00pm 16.6 SSW 13 16 1024.2 - 0.0 - - - - - - -
17/03:30pm 16.8 SSW 12 16 1024.3 - 0.0 - - - - - - -
17/03:00pm 16.9 SSW 10 15 1024.2 - 0.0 - - - - - - -
17/02:30pm 17.5 S 11 17 1024.4 - 0.0 - - - - - - -
17/02:00pm 17.5 SSE 8 13 1024.5 - 0.0 - - - - - - -

Other Formats:

Comma delimited format used in spreadsheet applications
http://www.bom.gov.au/fwo/IDV60701/IDV60701.95816.axf

JavaScript Object Notation format (JSON) in row-major order
http://www.bom.gov.au/fwo/IDV60701/IDV60701.95816.json